Greater Kankakee Airport Kankakee US
ICAO: KIKK
IATA: IKK
Category: Medium
Scheduled Services: No

Elevation: 630 ft
TransAlt. 18000 ft.

Airport Communications:
AWOS 3:111.6
CHICAGO CNTR:132.5
KANKAKEE RDO:122.2
CTAF/UNICOM:123

KIKK Zoom In..

If Map Doesn't Load, Click Here

Runways:

(A) RW 04 length 5981 ft width 100 ft
ILS 108.70 / hdg 38

(B) RW 16 length 4398 ft width 75 ft
---- / hdg 161

(C) RW 22 length 5981 ft width 100 ft
---- / hdg 218

(D) RW 34 length 4398 ft width 75 ft
---- / hdg 341

Location; KIKK
Day. 21 / Time. 16.15 Zulu
* Altimeter: 29.95
* Temperature: 24° c. 75.2°f.
* Wind from: 270° Speed 16 kn with Gusts up to 20 kn.
Dewpoint: 18° c.
Visibility: 10 Statute Miles.
Clouds: Broken 2900 ft.
Clouds: Broken 4200 ft.

KIKK 211615Z AUTO 27016G20KT 10SM BKN029 BKN042 24/18 A2995 RMK AO2 T02410182


Wind From 270°
Speed 16 kn.

 
 
jpsmedia.com for Web Design worldairports.se 2018   terms of use